createdAt,value
2023-05-12T00:00:07.721Z,3.20
2023-05-12T00:03:18.015Z,2.75
2023-05-12T00:06:21.652Z,2.83
2023-05-12T00:09:24.602Z,2.97
2023-05-12T00:12:27.588Z,2.80
2023-05-12T00:15:30.547Z,2.83
2023-05-12T00:18:33.478Z,2.80
2023-05-12T00:21:36.565Z,2.37
2023-05-12T00:24:42.348Z,2.97
2023-05-12T00:27:45.281Z,3.00
2023-05-12T00:30:48.253Z,2.78
2023-05-12T00:33:51.233Z,2.95
2023-05-12T00:36:54.201Z,2.90
2023-05-12T00:39:57.202Z,2.85
2023-05-12T00:43:00.200Z,2.95
2023-05-12T00:46:04.385Z,2.60
2023-05-12T00:49:07.897Z,2.63
2023-05-12T00:52:10.842Z,2.67
2023-05-12T00:55:14.426Z,2.95
2023-05-12T00:58:17.396Z,2.60
2023-05-12T01:01:20.528Z,2.50
2023-05-12T01:04:26.214Z,2.60
2023-05-12T01:07:31.395Z,2.53
2023-05-12T01:10:34.813Z,2.40
2023-05-12T01:13:39.540Z,2.53
2023-05-12T01:16:54.389Z,2.65
2023-05-12T01:19:58.866Z,2.47
2023-05-12T01:23:01.824Z,2.80
2023-05-12T01:26:09.023Z,2.80
2023-05-12T01:29:13.254Z,3.00
2023-05-12T01:32:16.891Z,2.55
2023-05-12T01:35:20.007Z,2.78
2023-05-12T01:38:30.907Z,2.53
2023-05-12T01:41:33.893Z,2.30
2023-05-12T01:44:37.011Z,3.17
2023-05-12T01:47:39.986Z,3.20
2023-05-12T01:50:44.686Z,2.83
2023-05-12T01:53:52.394Z,3.50
2023-05-12T01:56:55.417Z,2.92
2023-05-12T01:59:58.493Z,3.30
2023-05-12T02:03:01.566Z,2.60
2023-05-12T02:06:04.954Z,3.60
2023-05-12T02:09:08.188Z,3.30
2023-05-12T02:12:11.254Z,3.15
2023-05-12T02:15:14.179Z,3.38
2023-05-12T02:18:21.087Z,3.30
2023-05-12T02:21:24.072Z,3.55
2023-05-12T02:24:29.200Z,3.17
2023-05-12T02:27:32.613Z,2.88
2023-05-12T02:30:35.871Z,3.08
2023-05-12T02:33:39.488Z,3.40
2023-05-12T02:36:42.531Z,2.90
2023-05-12T02:39:45.528Z,3.37
2023-05-12T02:42:48.491Z,3.33
2023-05-12T02:45:51.952Z,3.10
2023-05-12T02:48:57.388Z,3.17
2023-05-12T02:52:00.364Z,3.25
2023-05-12T02:55:03.459Z,2.70
2023-05-12T02:58:06.425Z,3.25
2023-05-12T03:01:11.308Z,2.90
2023-05-12T03:04:16.732Z,3.05
2023-05-12T03:07:19.724Z,3.70
2023-05-12T03:10:22.959Z,3.20
2023-05-12T03:13:26.177Z,3.65
2023-05-12T03:16:29.207Z,4.30
2023-05-12T03:19:32.318Z,3.40
2023-05-12T03:22:35.311Z,3.28
2023-05-12T03:25:38.602Z,3.00
2023-05-12T03:28:41.636Z,2.85
2023-05-12T03:31:44.732Z,3.08
2023-05-12T03:34:47.855Z,2.97
2023-05-12T03:37:51.691Z,3.40
2023-05-12T03:41:04.810Z,3.10
2023-05-12T03:44:08.676Z,5.40
2023-05-12T03:47:11.752Z,4.30
2023-05-12T03:50:14.823Z,3.15
2023-05-12T03:53:17.869Z,3.78
2023-05-12T03:56:20.809Z,3.20
2023-05-12T03:59:23.951Z,3.00
2023-05-12T04:02:27.458Z,3.25
2023-05-12T04:05:30.526Z,3.55
2023-05-12T04:08:33.792Z,3.22
2023-05-12T04:11:37.093Z,4.13
2023-05-12T04:14:43.252Z,3.28
2023-05-12T04:17:46.558Z,3.58
2023-05-12T04:20:49.606Z,3.13
2023-05-12T04:23:53.003Z,4.00
2023-05-12T04:26:58.128Z,3.60
2023-05-12T04:30:01.783Z,3.95
2023-05-12T04:33:08.253Z,3.70
2023-05-12T04:36:13.786Z,7.85
2023-05-12T04:39:17.374Z,4.15
2023-05-12T04:42:20.792Z,3.23
2023-05-12T04:45:23.877Z,3.83
2023-05-12T04:48:31.395Z,3.83
2023-05-12T04:51:34.502Z,3.20
2023-05-12T04:54:39.054Z,3.88
2023-05-12T04:57:42.607Z,3.63
2023-05-12T05:00:47.016Z,3.60
2023-05-12T05:03:50.330Z,3.67
2023-05-12T05:06:55.598Z,3.45
2023-05-12T05:09:59.293Z,3.58
2023-05-12T05:13:02.668Z,3.73
2023-05-12T05:16:06.760Z,3.75
2023-05-12T05:19:20.117Z,4.50
2023-05-12T05:22:29.069Z,4.30
2023-05-12T05:25:32.152Z,4.20
2023-05-12T05:28:36.626Z,3.93
2023-05-12T05:31:39.721Z,3.90
2023-05-12T05:34:43.205Z,4.25
2023-05-12T05:37:47.266Z,4.38
2023-05-12T05:40:54.165Z,4.72
2023-05-12T05:43:58.349Z,3.47
2023-05-12T05:47:03.217Z,3.72
2023-05-12T05:50:07.160Z,3.60
2023-05-12T05:53:12.666Z,4.20
2023-05-12T05:56:15.840Z,3.70
2023-05-12T05:59:18.867Z,3.20
2023-05-12T06:02:25.143Z,3.58
2023-05-12T06:05:28.425Z,3.33
2023-05-12T06:08:31.712Z,3.60
2023-05-12T06:11:34.831Z,3.40
2023-05-12T06:14:37.819Z,3.43
2023-05-12T06:17:41.336Z,6.55
2023-05-12T06:20:44.950Z,3.95
2023-05-12T06:23:48.011Z,3.85
2023-05-12T06:26:51.102Z,3.38
2023-05-12T06:29:54.080Z,3.50
2023-05-12T06:32:57.063Z,3.53
2023-05-12T06:36:00.236Z,3.22
2023-05-12T06:39:04.426Z,3.53
2023-05-12T06:42:07.535Z,3.80
2023-05-12T06:45:17.391Z,3.63
2023-05-12T06:48:20.820Z,3.35
2023-05-12T06:51:23.819Z,4.30
2023-05-12T06:54:26.842Z,4.47
2023-05-12T06:57:29.897Z,5.07
2023-05-12T07:00:32.957Z,4.80
2023-05-12T07:03:36.153Z,6.03
2023-05-12T07:06:40.364Z,4.40
2023-05-12T07:09:45.240Z,4.15
2023-05-12T07:12:48.213Z,4.28
2023-05-12T07:15:52.958Z,3.67
2023-05-12T07:18:56.178Z,4.53
2023-05-12T07:21:59.294Z,3.92
2023-05-12T07:25:02.270Z,3.72
2023-05-12T07:28:05.330Z,3.72
2023-05-12T07:31:08.591Z,4.33
2023-05-12T07:34:11.798Z,3.47
2023-05-12T07:37:14.799Z,3.63
2023-05-12T07:40:18.013Z,3.90
2023-05-12T07:43:21.160Z,4.22
2023-05-12T07:46:24.161Z,3.60
2023-05-12T07:49:27.247Z,3.30
2023-05-12T07:52:30.280Z,3.28
2023-05-12T07:55:36.283Z,3.63
2023-05-12T07:58:39.222Z,5.57
2023-05-12T08:01:42.933Z,5.50
2023-05-12T08:04:47.652Z,3.90
2023-05-12T08:07:50.795Z,4.90
2023-05-12T08:10:53.748Z,4.93
2023-05-12T08:13:56.713Z,4.43
2023-05-12T08:16:59.929Z,4.73
2023-05-12T08:20:06.732Z,5.32
2023-05-12T08:23:10.699Z,4.95
2023-05-12T08:26:13.658Z,3.90
2023-05-12T08:29:16.765Z,4.65
2023-05-12T08:32:19.890Z,4.60
2023-05-12T08:35:24.592Z,4.53
2023-05-12T08:38:27.662Z,5.13
2023-05-12T08:42:04.373Z,4.75
2023-05-12T08:45:08.148Z,4.47
2023-05-12T08:48:11.488Z,4.10
2023-05-12T08:51:14.885Z,4.38
2023-05-12T08:54:18.129Z,4.28
2023-05-12T08:57:22.001Z,4.03
2023-05-12T09:00:25.969Z,4.50
2023-05-12T09:03:29.472Z,4.13
2023-05-12T09:06:33.030Z,4.25
2023-05-12T09:09:36.978Z,5.10
2023-05-12T09:12:39.912Z,4.25
2023-05-12T09:15:44.848Z,4.78
2023-05-12T09:18:55.901Z,4.27
2023-05-12T09:21:59.805Z,4.30
2023-05-12T09:25:14.830Z,4.38
2023-05-12T09:28:18.024Z,4.80
2023-05-12T09:31:23.840Z,5.05
2023-05-12T09:34:31.155Z,4.67
2023-05-12T09:37:35.427Z,5.32
2023-05-12T09:40:38.686Z,5.03
2023-05-12T09:43:47.667Z,4.82
2023-05-12T09:46:51.488Z,5.30
2023-05-12T09:49:56.693Z,5.47
2023-05-12T09:53:02.493Z,5.75
2023-05-12T09:56:05.547Z,5.57
2023-05-12T09:59:08.526Z,4.78
2023-05-12T10:02:11.565Z,5.28
2023-05-12T10:05:21.596Z,5.80
2023-05-12T10:08:34.320Z,5.80
2023-05-12T10:11:37.288Z,5.43
2023-05-12T10:14:40.280Z,5.07
2023-05-12T10:17:43.399Z,5.95
2023-05-12T10:20:46.686Z,4.87
2023-05-12T10:23:49.819Z,5.63
2023-05-12T10:26:53.316Z,4.70
2023-05-12T10:29:56.367Z,5.18
2023-05-12T10:32:59.766Z,5.05
2023-05-12T10:36:04.026Z,5.17
2023-05-12T10:39:07.494Z,5.60
2023-05-12T10:42:10.933Z,5.57
2023-05-12T10:45:21.326Z,5.22
2023-05-12T10:48:27.180Z,5.00
2023-05-12T10:51:54.198Z,5.10
2023-05-12T10:55:07.074Z,4.80
2023-05-12T10:58:13.225Z,5.30
2023-05-12T11:01:25.219Z,5.72
2023-05-12T11:04:45.615Z,5.38
2023-05-12T11:07:52.854Z,4.90
2023-05-12T11:10:59.358Z,5.85
2023-05-12T11:14:02.725Z,5.57
2023-05-12T11:17:05.837Z,5.60
2023-05-12T11:20:11.978Z,6.13
2023-05-12T11:23:25.388Z,5.60
2023-05-12T11:26:29.333Z,5.68
2023-05-12T11:29:32.675Z,6.03
2023-05-12T11:32:35.690Z,5.50
2023-05-12T11:35:38.744Z,5.88
2023-05-12T11:38:48.159Z,5.40
2023-05-12T11:41:54.705Z,4.97
2023-05-12T11:45:02.464Z,6.18
2023-05-12T11:48:12.927Z,5.90
2023-05-12T11:51:16.016Z,5.50
2023-05-12T11:54:19.082Z,5.23
2023-05-12T11:57:33.032Z,6.15
2023-05-12T12:00:36.131Z,7.13
2023-05-12T12:03:50.828Z,5.70
2023-05-12T12:06:53.860Z,5.50
2023-05-12T12:09:56.873Z,5.53
2023-05-12T12:13:01.567Z,5.30
2023-05-12T12:16:07.188Z,5.63
2023-05-12T12:19:10.305Z,7.47
2023-05-12T12:22:13.356Z,5.30
2023-05-12T12:25:16.319Z,5.40
2023-05-12T12:28:19.718Z,5.38
2023-05-12T12:31:22.911Z,4.63
2023-05-12T12:34:26.042Z,5.47
2023-05-12T12:37:29.061Z,4.82
2023-05-12T12:40:32.317Z,4.67
2023-05-12T12:43:35.247Z,4.20
2023-05-12T12:46:38.301Z,4.70
2023-05-12T12:49:41.279Z,4.10
2023-05-12T12:52:44.610Z,3.50
2023-05-12T12:55:47.612Z,3.83
2023-05-12T12:58:50.594Z,3.90
2023-05-12T13:01:54.058Z,3.28
2023-05-12T13:04:57.105Z,3.83
2023-05-12T13:08:00.209Z,3.38
2023-05-12T13:11:03.234Z,3.53
2023-05-12T13:14:06.919Z,3.75
2023-05-12T13:17:10.147Z,3.90
2023-05-12T13:20:14.170Z,3.78
2023-05-12T13:23:17.145Z,4.70
2023-05-12T13:26:20.083Z,3.90
2023-05-12T13:29:23.127Z,3.80
2023-05-12T13:32:26.099Z,4.07
2023-05-12T13:35:29.020Z,4.10
2023-05-12T13:38:32.529Z,3.55
2023-05-12T13:41:35.656Z,4.13
2023-05-12T13:44:38.603Z,4.05
2023-05-12T13:47:41.702Z,4.40
2023-05-12T13:50:44.684Z,4.25
2023-05-12T13:53:47.753Z,4.32
2023-05-12T13:56:50.764Z,4.70
2023-05-12T13:59:55.052Z,4.70
2023-05-12T14:02:58.133Z,4.65
2023-05-12T14:06:01.429Z,4.35
2023-05-12T14:09:07.676Z,4.35
2023-05-12T14:12:10.873Z,3.77
2023-05-12T14:15:26.601Z,6.60
2023-05-12T14:18:37.662Z,4.68
2023-05-12T14:21:41.272Z,4.18
2023-05-12T14:24:44.236Z,4.22
2023-05-12T14:27:47.195Z,4.43
2023-05-12T14:30:50.572Z,4.95
2023-05-12T14:33:53.608Z,5.70
2023-05-12T14:36:56.590Z,5.15
2023-05-12T14:39:59.603Z,5.45
2023-05-12T14:43:03.441Z,5.90
2023-05-12T14:46:07.282Z,5.50
2023-05-12T14:49:12.360Z,5.30
2023-05-12T14:52:15.875Z,4.13
2023-05-12T14:55:19.142Z,5.60
2023-05-12T14:58:28.609Z,6.10
2023-05-12T15:01:31.631Z,5.22
2023-05-12T15:04:34.634Z,4.60
2023-05-12T15:07:37.763Z,5.18
2023-05-12T15:10:40.828Z,4.82
2023-05-12T15:13:43.885Z,5.53
2023-05-12T15:16:46.942Z,4.28
2023-05-12T15:19:50.340Z,4.10
2023-05-12T15:22:56.043Z,3.55
2023-05-12T15:26:03.272Z,4.15
2023-05-12T15:29:09.995Z,3.60
2023-05-12T15:32:13.009Z,5.00
2023-05-12T15:35:16.255Z,3.95
2023-05-12T15:38:19.556Z,3.83
2023-05-12T15:41:23.281Z,3.83
2023-05-12T15:44:26.572Z,4.20
2023-05-12T15:47:29.838Z,4.57
2023-05-12T15:50:33.266Z,4.80
2023-05-12T15:53:36.374Z,5.47
2023-05-12T15:56:39.330Z,4.88
2023-05-12T15:59:42.331Z,4.60
2023-05-12T16:02:45.505Z,4.78
2023-05-12T16:05:48.883Z,5.05
2023-05-12T16:08:52.476Z,5.50
2023-05-12T16:11:57.406Z,4.97
2023-05-12T16:15:00.364Z,4.80
2023-05-12T16:18:03.558Z,5.68
2023-05-12T16:21:06.606Z,5.78
2023-05-12T16:24:09.940Z,6.22
2023-05-12T16:27:12.910Z,5.72
2023-05-12T16:30:18.467Z,5.67
2023-05-12T16:33:23.389Z,5.45
2023-05-12T16:36:26.451Z,6.25
2023-05-12T16:39:32.327Z,6.70
2023-05-12T16:42:35.311Z,7.85
2023-05-12T16:45:38.336Z,8.70
2023-05-12T16:48:41.376Z,7.03
2023-05-12T16:51:44.445Z,6.70
2023-05-12T16:54:47.923Z,6.38
2023-05-12T16:57:51.122Z,7.35
2023-05-12T17:00:54.598Z,6.53
2023-05-12T17:03:57.757Z,6.20
2023-05-12T17:07:01.243Z,5.78
2023-05-12T17:10:04.389Z,5.50
2023-05-12T17:13:07.497Z,5.80
2023-05-12T17:16:10.495Z,5.57
2023-05-12T17:19:14.064Z,5.65
2023-05-12T17:22:17.451Z,5.72
2023-05-12T17:25:20.961Z,5.90
2023-05-12T17:28:24.113Z,6.85
2023-05-12T17:31:27.143Z,5.67
2023-05-12T17:34:30.186Z,5.65
2023-05-12T17:37:33.759Z,5.97
2023-05-12T17:40:36.932Z,6.57
2023-05-12T17:43:39.909Z,6.60
2023-05-12T17:46:43.449Z,6.10
2023-05-12T17:49:46.429Z,5.20
2023-05-12T17:52:49.414Z,6.03
2023-05-12T17:55:52.480Z,5.60
2023-05-12T17:58:55.673Z,5.30
2023-05-12T18:01:59.050Z,5.37
2023-05-12T18:05:02.076Z,5.57
2023-05-12T18:08:06.081Z,5.45
2023-05-12T18:11:09.054Z,5.00
2023-05-12T18:14:11.982Z,5.40
2023-05-12T18:17:15.406Z,5.53
2023-05-12T18:20:19.008Z,5.80
2023-05-12T18:23:22.011Z,5.28
2023-05-12T18:26:25.017Z,5.60
2023-05-12T18:29:28.010Z,6.03
2023-05-12T18:32:31.641Z,5.43
2023-05-12T18:35:35.050Z,5.25
2023-05-12T18:38:37.995Z,5.53
2023-05-12T18:41:40.938Z,4.95
2023-05-12T18:44:43.904Z,5.32
2023-05-12T18:47:46.864Z,5.67
2023-05-12T18:50:49.857Z,5.95
2023-05-12T18:53:52.825Z,6.30
2023-05-12T18:56:55.866Z,6.22
2023-05-12T18:59:58.813Z,6.10
2023-05-12T19:03:04.932Z,6.23
2023-05-12T19:06:07.960Z,5.97
2023-05-12T19:09:11.022Z,5.57
2023-05-12T19:12:13.959Z,6.10
2023-05-12T19:15:16.977Z,5.35
2023-05-12T19:18:20.063Z,5.43
2023-05-12T19:21:23.172Z,5.72
2023-05-12T19:24:27.113Z,5.90
2023-05-12T19:27:30.477Z,5.45
2023-05-12T19:30:34.100Z,5.22
2023-05-12T19:33:37.044Z,5.70
2023-05-12T19:36:40.112Z,5.47
2023-05-12T19:39:43.117Z,5.93
2023-05-12T19:42:46.101Z,5.45
2023-05-12T19:45:49.069Z,5.88
2023-05-12T19:48:52.799Z,6.03
2023-05-12T19:51:55.875Z,5.32
2023-05-12T19:54:58.833Z,5.45
2023-05-12T19:58:02.086Z,5.28
2023-05-12T20:01:06.101Z,5.65
2023-05-12T20:04:09.215Z,5.43
2023-05-12T20:07:12.349Z,6.32
2023-05-12T20:10:15.387Z,5.57
2023-05-12T20:13:18.307Z,6.25
2023-05-12T20:16:21.325Z,6.28
2023-05-12T20:19:24.314Z,6.27
2023-05-12T20:22:27.247Z,6.20
2023-05-12T20:25:33.122Z,6.72
2023-05-12T20:28:36.513Z,6.43
2023-05-12T20:31:39.541Z,7.00
2023-05-12T20:34:42.881Z,6.33
2023-05-12T20:37:45.862Z,6.20
2023-05-12T20:40:48.861Z,6.32
2023-05-12T20:43:51.807Z,6.18
2023-05-12T20:46:55.072Z,6.47
2023-05-12T20:49:58.744Z,6.70
2023-05-12T20:53:01.752Z,6.78
2023-05-12T20:56:04.729Z,6.63
2023-05-12T20:59:07.747Z,6.50
2023-05-12T21:02:10.846Z,7.40
2023-05-12T21:05:13.914Z,6.90
2023-05-12T21:08:16.980Z,7.32
2023-05-12T21:11:19.929Z,7.30
2023-05-12T21:14:23.016Z,7.60
2023-05-12T21:17:26.040Z,7.88
2023-05-12T21:20:28.977Z,7.43
2023-05-12T21:23:31.997Z,7.88
2023-05-12T21:26:34.993Z,7.78
2023-05-12T21:29:38.000Z,7.32
2023-05-12T21:32:40.995Z,7.35
2023-05-12T21:35:43.986Z,7.67
2023-05-12T21:38:46.972Z,7.85
2023-05-12T21:41:49.978Z,7.72
2023-05-12T21:44:53.017Z,7.63
2023-05-12T21:47:56.245Z,7.50
2023-05-12T21:51:02.740Z,7.00
2023-05-12T21:54:05.779Z,7.85
2023-05-12T21:57:08.707Z,8.02
2023-05-12T22:00:14.444Z,7.43
2023-05-12T22:03:20.353Z,7.88
2023-05-12T22:06:23.389Z,7.57
2023-05-12T22:09:26.357Z,7.53
2023-05-12T22:12:29.296Z,8.23
2023-05-12T22:15:32.434Z,8.48
2023-05-12T22:18:35.659Z,8.07
2023-05-12T22:21:38.652Z,8.13
2023-05-12T22:24:41.650Z,8.10
2023-05-12T22:27:44.703Z,8.52
2023-05-12T22:30:47.632Z,8.52
2023-05-12T22:33:51.020Z,8.43
2023-05-12T22:36:53.980Z,7.93
2023-05-12T22:39:57.016Z,6.82
2023-05-12T22:43:00.064Z,6.53
2023-05-12T22:46:04.525Z,6.05
2023-05-12T22:49:07.518Z,6.47
2023-05-12T22:52:10.493Z,6.53
2023-05-12T22:55:13.459Z,6.25
2023-05-12T22:58:16.447Z,6.00
2023-05-12T23:01:19.514Z,7.00
2023-05-12T23:04:22.625Z,6.53
2023-05-12T23:07:25.826Z,6.97
2023-05-12T23:10:28.767Z,5.50
2023-05-12T23:13:31.663Z,6.63
2023-05-12T23:16:34.608Z,6.00
2023-05-12T23:19:37.903Z,6.63
2023-05-12T23:22:40.858Z,5.97
2023-05-12T23:25:43.826Z,6.60
2023-05-12T23:28:46.763Z,6.38
2023-05-12T23:31:49.764Z,6.30
2023-05-12T23:34:52.775Z,6.65
2023-05-12T23:37:55.812Z,6.50
2023-05-12T23:40:58.919Z,6.65
2023-05-12T23:44:02.432Z,6.60
2023-05-12T23:47:05.731Z,6.63
2023-05-12T23:50:09.266Z,6.57
2023-05-12T23:53:12.314Z,5.87
2023-05-12T23:56:15.498Z,5.55
2023-05-12T23:59:18.484Z,6.18
